Port Dufferin, Canada
Current Conditions -  °F | °C
As of 6:00 AM on Wednesday 22 Oct 2014 (Local Time) from CYHZ Reporting Station
Overcast Overcast  
Wind Chill: 41°   Ceiling: 12000
Heat Index: 46°   Visibility: 15mi
Dew Point: 43°   Wind: 12mph
Humidity: 87%   Direction: 80°E
Pressure: 30.24"   Gusts: NA
Location:  44.92°N, 62.38°W
Report Text: CYHZ 220900Z 08010KT 15SM FEW015 OVC120 08/06 A3024 RMK SC1AC7 SLP244
Loading
Personal Weather Stations






























Interactive Weather Map New forecast layout! Learn more

10-Day Weather Forecast

Advertisements
Track Severe Weather on mobile